sensor_id;sensor_type;location;lat;lon;timestamp;P1;durP1;ratioP1;P2;durP2;ratioP2
26696;SDS011;14312;52.614;13.496;2023-04-21T00:01:26;3.67;;;2.63;;
26696;SDS011;14312;52.614;13.496;2023-04-21T00:04:14;3.08;;;2.40;;
26696;SDS011;14312;52.614;13.496;2023-04-21T00:07:00;3.10;;;2.80;;
26696;SDS011;14312;52.614;13.496;2023-04-21T00:09:48;2.90;;;2.70;;
26696;SDS011;14312;52.614;13.496;2023-04-21T00:12:34;3.85;;;2.85;;
26696;SDS011;14312;52.614;13.496;2023-04-21T00:15:20;3.35;;;2.90;;
26696;SDS011;14312;52.614;13.496;2023-04-21T00:18:06;5.07;;;3.00;;
26696;SDS011;14312;52.614;13.496;2023-04-21T00:20:52;2.95;;;2.65;;
26696;SDS011;14312;52.614;13.496;2023-04-21T00:23:38;3.15;;;2.85;;
26696;SDS011;14312;52.614;13.496;2023-04-21T00:26:24;4.38;;;3.05;;
26696;SDS011;14312;52.614;13.496;2023-04-21T00:29:10;3.92;;;2.97;;
26696;SDS011;14312;52.614;13.496;2023-04-21T00:31:56;3.17;;;2.65;;
26696;SDS011;14312;52.614;13.496;2023-04-21T00:34:42;3.25;;;2.95;;
26696;SDS011;14312;52.614;13.496;2023-04-21T00:37:28;4.88;;;3.08;;
26696;SDS011;14312;52.614;13.496;2023-04-21T00:40:14;3.20;;;2.90;;
26696;SDS011;14312;52.614;13.496;2023-04-21T00:43:00;3.47;;;3.05;;
26696;SDS011;14312;52.614;13.496;2023-04-21T00:45:46;3.50;;;3.20;;
26696;SDS011;14312;52.614;13.496;2023-04-21T00:48:32;4.22;;;3.10;;
26696;SDS011;14312;52.614;13.496;2023-04-21T00:51:18;3.53;;;3.22;;
26696;SDS011;14312;52.614;13.496;2023-04-21T00:54:04;3.67;;;3.30;;
26696;SDS011;14312;52.614;13.496;2023-04-21T00:56:51;3.72;;;3.30;;
26696;SDS011;14312;52.614;13.496;2023-04-21T00:59:38;4.53;;;3.05;;
26696;SDS011;14312;52.614;13.496;2023-04-21T01:02:24;4.75;;;3.63;;
26696;SDS011;14312;52.614;13.496;2023-04-21T01:05:10;3.55;;;3.25;;
26696;SDS011;14312;52.614;13.496;2023-04-21T01:07:57;5.85;;;3.42;;
26696;SDS011;14312;52.614;13.496;2023-04-21T01:10:43;3.72;;;3.20;;
26696;SDS011;14312;52.614;13.496;2023-04-21T01:13:29;4.20;;;3.80;;
26696;SDS011;14312;52.614;13.496;2023-04-21T01:16:18;3.80;;;3.50;;
26696;SDS011;14312;52.614;13.496;2023-04-21T01:19:05;4.35;;;3.78;;
26696;SDS011;14312;52.614;13.496;2023-04-21T01:21:52;3.63;;;3.28;;
26696;SDS011;14312;52.614;13.496;2023-04-21T01:24:46;3.95;;;3.33;;
26696;SDS011;14312;52.614;13.496;2023-04-21T01:27:33;4.10;;;3.70;;
26696;SDS011;14312;52.614;13.496;2023-04-21T01:30:19;5.00;;;3.70;;
26696;SDS011;14312;52.614;13.496;2023-04-21T01:33:05;4.20;;;3.65;;
26696;SDS011;14312;52.614;13.496;2023-04-21T01:35:51;3.42;;;3.13;;
26696;SDS011;14312;52.614;13.496;2023-04-21T01:38:38;5.40;;;4.07;;
26696;SDS011;14312;52.614;13.496;2023-04-21T01:41:25;4.22;;;3.40;;
26696;SDS011;14312;52.614;13.496;2023-04-21T01:44:11;3.72;;;3.42;;
26696;SDS011;14312;52.614;13.496;2023-04-21T01:46:57;4.63;;;3.90;;
26696;SDS011;14312;52.614;13.496;2023-04-21T01:49:43;4.25;;;3.85;;
26696;SDS011;14312;52.614;13.496;2023-04-21T01:52:29;4.35;;;3.95;;
26696;SDS011;14312;52.614;13.496;2023-04-21T01:55:15;4.72;;;4.18;;
26696;SDS011;14312;52.614;13.496;2023-04-21T01:58:01;4.90;;;3.97;;
26696;SDS011;14312;52.614;13.496;2023-04-21T02:00:47;5.22;;;4.05;;
26696;SDS011;14312;52.614;13.496;2023-04-21T02:03:33;4.85;;;3.92;;
26696;SDS011;14312;52.614;13.496;2023-04-21T02:06:19;4.55;;;3.70;;
26696;SDS011;14312;52.614;13.496;2023-04-21T02:09:05;3.97;;;3.67;;
26696;SDS011;14312;52.614;13.496;2023-04-21T02:11:51;6.22;;;4.32;;
26696;SDS011;14312;52.614;13.496;2023-04-21T02:14:37;4.55;;;3.97;;
26696;SDS011;14312;52.614;13.496;2023-04-21T02:17:23;4.55;;;4.10;;
26696;SDS011;14312;52.614;13.496;2023-04-21T02:20:09;4.90;;;4.50;;
26696;SDS011;14312;52.614;13.496;2023-04-21T02:22:56;5.50;;;3.75;;
26696;SDS011;14312;52.614;13.496;2023-04-21T02:25:42;4.78;;;4.30;;
26696;SDS011;14312;52.614;13.496;2023-04-21T02:28:28;4.35;;;3.92;;
26696;SDS011;14312;52.614;13.496;2023-04-21T02:31:16;4.57;;;4.18;;
26696;SDS011;14312;52.614;13.496;2023-04-21T02:34:03;6.53;;;4.65;;
26696;SDS011;14312;52.614;13.496;2023-04-21T02:36:49;6.65;;;4.53;;
26696;SDS011;14312;52.614;13.496;2023-04-21T02:39:35;5.05;;;4.35;;
26696;SDS011;14312;52.614;13.496;2023-04-21T02:42:21;4.63;;;3.83;;
26696;SDS011;14312;52.614;13.496;2023-04-21T02:45:07;4.95;;;4.20;;
26696;SDS011;14312;52.614;13.496;2023-04-21T02:47:53;5.32;;;4.40;;
26696;SDS011;14312;52.614;13.496;2023-04-21T02:50:41;4.82;;;4.18;;
26696;SDS011;14312;52.614;13.496;2023-04-21T02:53:27;5.38;;;4.50;;
26696;SDS011;14312;52.614;13.496;2023-04-21T02:56:13;4.63;;;4.22;;
26696;SDS011;14312;52.614;13.496;2023-04-21T02:58:59;6.65;;;4.43;;
26696;SDS011;14312;52.614;13.496;2023-04-21T03:01:45;4.93;;;4.32;;
26696;SDS011;14312;52.614;13.496;2023-04-21T03:04:33;4.90;;;4.43;;
26696;SDS011;14312;52.614;13.496;2023-04-21T03:07:19;5.03;;;4.53;;
26696;SDS011;14312;52.614;13.496;2023-04-21T03:10:05;4.93;;;4.43;;
26696;SDS011;14312;52.614;13.496;2023-04-21T03:12:51;4.57;;;4.05;;
26696;SDS011;14312;52.614;13.496;2023-04-21T03:15:38;5.63;;;4.45;;
26696;SDS011;14312;52.614;13.496;2023-04-21T03:18:24;4.80;;;4.40;;
26696;SDS011;14312;52.614;13.496;2023-04-21T03:21:10;5.10;;;4.45;;
26696;SDS011;14312;52.614;13.496;2023-04-21T03:23:56;4.85;;;4.30;;
26696;SDS011;14312;52.614;13.496;2023-04-21T03:26:42;5.25;;;4.53;;
26696;SDS011;14312;52.614;13.496;2023-04-21T03:29:28;4.82;;;4.43;;
26696;SDS011;14312;52.614;13.496;2023-04-21T03:32:14;5.25;;;4.75;;
26696;SDS011;14312;52.614;13.496;2023-04-21T03:34:59;4.93;;;4.43;;
26696;SDS011;14312;52.614;13.496;2023-04-21T03:37:45;4.78;;;4.38;;
26696;SDS011;14312;52.614;13.496;2023-04-21T03:40:31;4.60;;;4.18;;
26696;SDS011;14312;52.614;13.496;2023-04-21T03:43:18;5.18;;;4.70;;
26696;SDS011;14312;52.614;13.496;2023-04-21T03:46:04;5.15;;;4.28;;
26696;SDS011;14312;52.614;13.496;2023-04-21T03:48:50;5.05;;;4.55;;
26696;SDS011;14312;52.614;13.496;2023-04-21T03:51:36;5.28;;;4.30;;
26696;SDS011;14312;52.614;13.496;2023-04-21T03:54:22;5.57;;;4.65;;
26696;SDS011;14312;52.614;13.496;2023-04-21T03:57:08;4.75;;;4.35;;
26696;SDS011;14312;52.614;13.496;2023-04-21T03:59:54;4.90;;;4.45;;
26696;SDS011;14312;52.614;13.496;2023-04-21T04:02:40;5.00;;;4.50;;
26696;SDS011;14312;52.614;13.496;2023-04-21T04:05:26;7.53;;;5.07;;
26696;SDS011;14312;52.614;13.496;2023-04-21T04:08:12;4.90;;;4.38;;
26696;SDS011;14312;52.614;13.496;2023-04-21T04:10:58;4.82;;;4.32;;
26696;SDS011;14312;52.614;13.496;2023-04-21T04:13:44;4.80;;;4.40;;
26696;SDS011;14312;52.614;13.496;2023-04-21T04:16:30;4.85;;;4.35;;
26696;SDS011;14312;52.614;13.496;2023-04-21T04:19:17;6.60;;;4.72;;
26696;SDS011;14312;52.614;13.496;2023-04-21T04:22:03;5.03;;;4.53;;
26696;SDS011;14312;52.614;13.496;2023-04-21T04:24:49;4.90;;;4.43;;
26696;SDS011;14312;52.614;13.496;2023-04-21T04:27:35;4.93;;;4.45;;
26696;SDS011;14312;52.614;13.496;2023-04-21T04:30:22;6.10;;;4.30;;
26696;SDS011;14312;52.614;13.496;2023-04-21T04:33:11;5.03;;;4.47;;
26696;SDS011;14312;52.614;13.496;2023-04-21T04:35:57;5.38;;;4.88;;
26696;SDS011;14312;52.614;13.496;2023-04-21T04:38:44;5.15;;;4.70;;
26696;SDS011;14312;52.614;13.496;2023-04-21T04:41:30;5.18;;;4.68;;
26696;SDS011;14312;52.614;13.496;2023-04-21T04:44:18;5.70;;;4.93;;
26696;SDS011;14312;52.614;13.496;2023-04-21T04:47:04;4.78;;;4.38;;
26696;SDS011;14312;52.614;13.496;2023-04-21T04:49:50;5.90;;;5.03;;
26696;SDS011;14312;52.614;13.496;2023-04-21T04:52:36;5.85;;;5.13;;
26696;SDS011;14312;52.614;13.496;2023-04-21T04:55:22;5.55;;;5.05;;
26696;SDS011;14312;52.614;13.496;2023-04-21T04:58:08;5.30;;;4.80;;
26696;SDS011;14312;52.614;13.496;2023-04-21T05:00:54;5.60;;;5.07;;
26696;SDS011;14312;52.614;13.496;2023-04-21T05:03:40;5.65;;;4.80;;
26696;SDS011;14312;52.614;13.496;2023-04-21T05:06:27;6.45;;;5.00;;
26696;SDS011;14312;52.614;13.496;2023-04-21T05:09:13;5.32;;;4.80;;
26696;SDS011;14312;52.614;13.496;2023-04-21T05:11:59;5.32;;;4.82;;
26696;SDS011;14312;52.614;13.496;2023-04-21T05:14:46;5.18;;;4.72;;
26696;SDS011;14312;52.614;13.496;2023-04-21T05:17:32;4.65;;;4.25;;
26696;SDS011;14312;52.614;13.496;2023-04-21T05:20:18;4.90;;;4.40;;
26696;SDS011;14312;52.614;13.496;2023-04-21T05:23:04;4.72;;;4.32;;
26696;SDS011;14312;52.614;13.496;2023-04-21T05:25:50;6.47;;;5.30;;
26696;SDS011;14312;52.614;13.496;2023-04-21T05:28:36;5.70;;;4.70;;
26696;SDS011;14312;52.614;13.496;2023-04-21T05:31:22;6.30;;;5.40;;
26696;SDS011;14312;52.614;13.496;2023-04-21T05:34:09;5.10;;;4.60;;
26696;SDS011;14312;52.614;13.496;2023-04-21T05:36:55;5.40;;;4.82;;
26696;SDS011;14312;52.614;13.496;2023-04-21T05:39:41;5.63;;;4.68;;
26696;SDS011;14312;52.614;13.496;2023-04-21T05:42:27;5.60;;;4.97;;
26696;SDS011;14312;52.614;13.496;2023-04-21T05:45:13;6.38;;;4.82;;
26696;SDS011;14312;52.614;13.496;2023-04-21T05:47:59;5.72;;;4.95;;
26696;SDS011;14312;52.614;13.496;2023-04-21T05:50:45;4.93;;;4.43;;
26696;SDS011;14312;52.614;13.496;2023-04-21T05:53:31;5.72;;;4.65;;
26696;SDS011;14312;52.614;13.496;2023-04-21T05:56:17;5.85;;;4.43;;
26696;SDS011;14312;52.614;13.496;2023-04-21T05:59:03;5.82;;;4.90;;
26696;SDS011;14312;52.614;13.496;2023-04-21T06:01:51;5.60;;;4.97;;
26696;SDS011;14312;52.614;13.496;2023-04-21T06:04:37;5.07;;;4.68;;
26696;SDS011;14312;52.614;13.496;2023-04-21T06:07:23;5.57;;;5.07;;
26696;SDS011;14312;52.614;13.496;2023-04-21T06:10:10;5.80;;;5.18;;
26696;SDS011;14312;52.614;13.496;2023-04-21T06:12:58;5.47;;;4.97;;
26696;SDS011;14312;52.614;13.496;2023-04-21T06:15:44;5.32;;;4.82;;
26696;SDS011;14312;52.614;13.496;2023-04-21T06:18:30;5.38;;;4.88;;
26696;SDS011;14312;52.614;13.496;2023-04-21T06:21:16;6.25;;;5.20;;
26696;SDS011;14312;52.614;13.496;2023-04-21T06:24:02;5.35;;;4.85;;
26696;SDS011;14312;52.614;13.496;2023-04-21T06:26:48;5.90;;;5.00;;
26696;SDS011;14312;52.614;13.496;2023-04-21T06:29:34;6.13;;;5.55;;
26696;SDS011;14312;52.614;13.496;2023-04-21T06:32:20;6.20;;;5.38;;
26696;SDS011;14312;52.614;13.496;2023-04-21T06:35:06;6.15;;;5.55;;
26696;SDS011;14312;52.614;13.496;2023-04-21T06:37:53;6.53;;;5.82;;
26696;SDS011;14312;52.614;13.496;2023-04-21T06:40:39;6.50;;;5.82;;
26696;SDS011;14312;52.614;13.496;2023-04-21T06:43:25;6.80;;;6.03;;
26696;SDS011;14312;52.614;13.496;2023-04-21T06:46:11;5.93;;;5.43;;
26696;SDS011;14312;52.614;13.496;2023-04-21T06:48:57;5.95;;;5.45;;
26696;SDS011;14312;52.614;13.496;2023-04-21T06:51:43;6.05;;;5.50;;
26696;SDS011;14312;52.614;13.496;2023-04-21T06:54:29;5.65;;;5.15;;
26696;SDS011;14312;52.614;13.496;2023-04-21T06:57:15;6.10;;;5.50;;
26696;SDS011;14312;52.614;13.496;2023-04-21T07:00:02;6.20;;;5.70;;
26696;SDS011;14312;52.614;13.496;2023-04-21T07:02:50;6.20;;;5.60;;
26696;SDS011;14312;52.614;13.496;2023-04-21T07:05:36;8.27;;;5.95;;
26696;SDS011;14312;52.614;13.496;2023-04-21T07:08:22;6.03;;;5.40;;
26696;SDS011;14312;52.614;13.496;2023-04-21T07:11:09;5.75;;;5.25;;
26696;SDS011;14312;52.614;13.496;2023-04-21T07:13:55;5.78;;;5.28;;
26696;SDS011;14312;52.614;13.496;2023-04-21T07:16:41;6.18;;;5.57;;
26696;SDS011;14312;52.614;13.496;2023-04-21T07:19:27;6.18;;;5.47;;
26696;SDS011;14312;52.614;13.496;2023-04-21T07:22:13;6.72;;;6.13;;
26696;SDS011;14312;52.614;13.496;2023-04-21T07:24:59;6.38;;;5.75;;
26696;SDS011;14312;52.614;13.496;2023-04-21T07:27:45;6.32;;;5.72;;
26696;SDS011;14312;52.614;13.496;2023-04-21T07:30:31;6.22;;;5.60;;
26696;SDS011;14312;52.614;13.496;2023-04-21T07:33:17;6.22;;;5.57;;
26696;SDS011;14312;52.614;13.496;2023-04-21T07:36:03;5.82;;;5.32;;
26696;SDS011;14312;52.614;13.496;2023-04-21T07:38:50;6.38;;;5.78;;
26696;SDS011;14312;52.614;13.496;2023-04-21T07:41:35;5.70;;;5.20;;
26696;SDS011;14312;52.614;13.496;2023-04-21T07:44:21;5.63;;;5.13;;
26696;SDS011;14312;52.614;13.496;2023-04-21T07:47:09;5.35;;;4.93;;
26696;SDS011;14312;52.614;13.496;2023-04-21T07:49:55;7.35;;;5.70;;
26696;SDS011;14312;52.614;13.496;2023-04-21T07:52:41;5.97;;;5.38;;
26696;SDS011;14312;52.614;13.496;2023-04-21T07:55:27;6.40;;;5.78;;
26696;SDS011;14312;52.614;13.496;2023-04-21T07:58:14;6.20;;;5.47;;
26696;SDS011;14312;52.614;13.496;2023-04-21T08:01:01;5.63;;;5.13;;
26696;SDS011;14312;52.614;13.496;2023-04-21T08:03:47;5.75;;;4.53;;
26696;SDS011;14312;52.614;13.496;2023-04-21T08:06:33;5.47;;;4.97;;
26696;SDS011;14312;52.614;13.496;2023-04-21T08:09:19;5.43;;;4.93;;
26696;SDS011;14312;52.614;13.496;2023-04-21T08:12:04;5.00;;;4.60;;
26696;SDS011;14312;52.614;13.496;2023-04-21T08:14:50;5.88;;;5.38;;
26696;SDS011;14312;52.614;13.496;2023-04-21T08:17:37;6.28;;;5.72;;
26696;SDS011;14312;52.614;13.496;2023-04-21T08:20:23;6.00;;;5.40;;
26696;SDS011;14312;52.614;13.496;2023-04-21T08:23:09;5.45;;;5.00;;
26696;SDS011;14312;52.614;13.496;2023-04-21T08:25:55;6.68;;;5.35;;
26696;SDS011;14312;52.614;13.496;2023-04-21T08:28:41;5.88;;;5.35;;
26696;SDS011;14312;52.614;13.496;2023-04-21T08:31:27;5.97;;;5.38;;
26696;SDS011;14312;52.614;13.496;2023-04-21T08:34:13;7.28;;;5.88;;
26696;SDS011;14312;52.614;13.496;2023-04-21T08:36:59;6.85;;;6.15;;
26696;SDS011;14312;52.614;13.496;2023-04-21T08:39:46;6.68;;;6.07;;
26696;SDS011;14312;52.614;13.496;2023-04-21T08:42:35;5.40;;;4.90;;
26696;SDS011;14312;52.614;13.496;2023-04-21T08:45:23;5.85;;;4.93;;
26696;SDS011;14312;52.614;13.496;2023-04-21T08:48:10;6.13;;;5.60;;
26696;SDS011;14312;52.614;13.496;2023-04-21T08:51:01;5.47;;;4.30;;
26696;SDS011;14312;52.614;13.496;2023-04-21T08:53:47;5.97;;;5.47;;
26696;SDS011;14312;52.614;13.496;2023-04-21T08:56:33;6.15;;;5.65;;
26696;SDS011;14312;52.614;13.496;2023-04-21T08:59:19;5.78;;;5.28;;
26696;SDS011;14312;52.614;13.496;2023-04-21T09:04:52;4.95;;;4.55;;
26696;SDS011;14312;52.614;13.496;2023-04-21T09:07:39;5.20;;;4.70;;
26696;SDS011;14312;52.614;13.496;2023-04-21T09:10:26;5.53;;;4.93;;
26696;SDS011;14312;52.614;13.496;2023-04-21T09:13:12;5.55;;;5.05;;
26696;SDS011;14312;52.614;13.496;2023-04-21T09:15:59;5.63;;;5.20;;
26696;SDS011;14312;52.614;13.496;2023-04-21T09:18:46;5.25;;;4.78;;
26696;SDS011;14312;52.614;13.496;2023-04-21T09:21:32;5.20;;;4.70;;
26696;SDS011;14312;52.614;13.496;2023-04-21T09:24:18;5.22;;;4.72;;
26696;SDS011;14312;52.614;13.496;2023-04-21T09:27:05;4.63;;;4.25;;
26696;SDS011;14312;52.614;13.496;2023-04-21T09:29:51;4.60;;;4.20;;
26696;SDS011;14312;52.614;13.496;2023-04-21T09:32:37;5.15;;;4.70;;
26696;SDS011;14312;52.614;13.496;2023-04-21T09:35:28;5.55;;;5.03;;
26696;SDS011;14312;52.614;13.496;2023-04-21T09:38:15;5.50;;;5.00;;
26696;SDS011;14312;52.614;13.496;2023-04-21T09:41:01;6.45;;;4.90;;
26696;SDS011;14312;52.614;13.496;2023-04-21T09:43:47;6.20;;;4.30;;
26696;SDS011;14312;52.614;13.496;2023-04-21T09:46:34;4.88;;;4.47;;
26696;SDS011;14312;52.614;13.496;2023-04-21T09:49:21;5.60;;;5.18;;
26696;SDS011;14312;52.614;13.496;2023-04-21T09:52:07;4.65;;;4.25;;
26696;SDS011;14312;52.614;13.496;2023-04-21T09:54:59;4.60;;;4.20;;
26696;SDS011;14312;52.614;13.496;2023-04-21T09:57:49;4.65;;;4.25;;
26696;SDS011;14312;52.614;13.496;2023-04-21T10:00:36;5.30;;;4.90;;
26696;SDS011;14312;52.614;13.496;2023-04-21T10:03:26;6.65;;;4.50;;
26696;SDS011;14312;52.614;13.496;2023-04-21T10:06:13;5.40;;;4.68;;
26696;SDS011;14312;52.614;13.496;2023-04-21T10:08:59;4.82;;;4.43;;
26696;SDS011;14312;52.614;13.496;2023-04-21T10:11:47;4.47;;;4.07;;
26696;SDS011;14312;52.614;13.496;2023-04-21T10:14:33;4.72;;;4.30;;
26696;SDS011;14312;52.614;13.496;2023-04-21T10:17:22;4.45;;;4.05;;
26696;SDS011;14312;52.614;13.496;2023-04-21T10:20:09;4.80;;;4.40;;
26696;SDS011;14312;52.614;13.496;2023-04-21T10:23:00;5.65;;;4.55;;
26696;SDS011;14312;52.614;13.496;2023-04-21T10:25:47;5.43;;;4.68;;
26696;SDS011;14312;52.614;13.496;2023-04-21T10:31:39;5.05;;;4.60;;
26696;SDS011;14312;52.614;13.496;2023-04-21T10:34:44;4.70;;;4.30;;
26696;SDS011;14312;52.614;13.496;2023-04-21T10:37:31;5.15;;;4.65;;
26696;SDS011;14312;52.614;13.496;2023-04-21T10:46:30;4.80;;;4.40;;
26696;SDS011;14312;52.614;13.496;2023-04-21T10:49:22;4.70;;;4.20;;
26696;SDS011;14312;52.614;13.496;2023-04-21T10:52:09;5.50;;;4.18;;
26696;SDS011;14312;52.614;13.496;2023-04-21T10:57:46;4.55;;;4.22;;
26696;SDS011;14312;52.614;13.496;2023-04-21T11:00:33;4.50;;;3.95;;
26696;SDS011;14312;52.614;13.496;2023-04-21T11:03:22;4.50;;;4.10;;
26696;SDS011;14312;52.614;13.496;2023-04-21T11:06:15;4.45;;;4.05;;
26696;SDS011;14312;52.614;13.496;2023-04-21T11:09:03;4.28;;;3.92;;
26696;SDS011;14312;52.614;13.496;2023-04-21T11:11:56;4.20;;;3.90;;
26696;SDS011;14312;52.614;13.496;2023-04-21T11:14:44;5.03;;;4.63;;
26696;SDS011;14312;52.614;13.496;2023-04-21T11:17:32;5.10;;;4.60;;
26696;SDS011;14312;52.614;13.496;2023-04-21T11:20:19;4.22;;;3.90;;
26696;SDS011;14312;52.614;13.496;2023-04-21T11:23:05;4.38;;;3.95;;
26696;SDS011;14312;52.614;13.496;2023-04-21T11:25:51;4.20;;;3.80;;
26696;SDS011;14312;52.614;13.496;2023-04-21T11:28:39;4.60;;;3.97;;
26696;SDS011;14312;52.614;13.496;2023-04-21T11:31:29;5.40;;;5.00;;
26696;SDS011;14312;52.614;13.496;2023-04-21T11:34:18;4.50;;;4.10;;
26696;SDS011;14312;52.614;13.496;2023-04-21T11:37:08;5.47;;;5.00;;
26696;SDS011;14312;52.614;13.496;2023-04-21T11:40:15;4.78;;;3.95;;
26696;SDS011;14312;52.614;13.496;2023-04-21T11:43:01;5.97;;;4.53;;
26696;SDS011;14312;52.614;13.496;2023-04-21T11:45:49;4.55;;;4.15;;
26696;SDS011;14312;52.614;13.496;2023-04-21T11:48:35;4.25;;;3.95;;
26696;SDS011;14312;52.614;13.496;2023-04-21T11:51:21;4.18;;;3.88;;
26696;SDS011;14312;52.614;13.496;2023-04-21T11:54:08;4.10;;;3.80;;
26696;SDS011;14312;52.614;13.496;2023-04-21T11:56:55;5.40;;;4.90;;
26696;SDS011;14312;52.614;13.496;2023-04-21T11:59:41;4.80;;;4.40;;
26696;SDS011;14312;52.614;13.496;2023-04-21T12:02:30;5.05;;;4.65;;
26696;SDS011;14312;52.614;13.496;2023-04-21T12:05:17;4.57;;;4.18;;
26696;SDS011;14312;52.614;13.496;2023-04-21T12:08:03;4.03;;;3.72;;
26696;SDS011;14312;52.614;13.496;2023-04-21T12:10:50;5.65;;;4.43;;
26696;SDS011;14312;52.614;13.496;2023-04-21T12:13:38;4.30;;;3.53;;
26696;SDS011;14312;52.614;13.496;2023-04-21T12:16:25;4.70;;;3.67;;
26696;SDS011;14312;52.614;13.496;2023-04-21T12:19:11;3.83;;;3.53;;
26696;SDS011;14312;52.614;13.496;2023-04-21T12:22:07;3.92;;;3.63;;
26696;SDS011;14312;52.614;13.496;2023-04-21T12:24:54;4.97;;;4.50;;
26696;SDS011;14312;52.614;13.496;2023-04-21T12:27:50;4.63;;;4.22;;
26696;SDS011;14312;52.614;13.496;2023-04-21T12:30:37;4.57;;;4.18;;
26696;SDS011;14312;52.614;13.496;2023-04-21T12:33:22;3.97;;;3.60;;
26696;SDS011;14312;52.614;13.496;2023-04-21T12:36:08;3.65;;;3.15;;
26696;SDS011;14312;52.614;13.496;2023-04-21T12:38:55;4.50;;;4.05;;
26696;SDS011;14312;52.614;13.496;2023-04-21T12:41:40;4.18;;;3.67;;
26696;SDS011;14312;52.614;13.496;2023-04-21T12:44:26;4.20;;;3.90;;
26696;SDS011;14312;52.614;13.496;2023-04-21T12:47:12;4.05;;;3.60;;
26696;SDS011;14312;52.614;13.496;2023-04-21T12:49:58;3.95;;;3.55;;
26696;SDS011;14312;52.614;13.496;2023-04-21T12:52:44;3.70;;;3.40;;
26696;SDS011;14312;52.614;13.496;2023-04-21T12:55:31;4.25;;;3.83;;
26696;SDS011;14312;52.614;13.496;2023-04-21T12:58:19;3.67;;;3.38;;
26696;SDS011;14312;52.614;13.496;2023-04-21T13:01:05;4.55;;;4.15;;
26696;SDS011;14312;52.614;13.496;2023-04-21T13:03:51;4.07;;;3.78;;
26696;SDS011;14312;52.614;13.496;2023-04-21T13:06:37;4.18;;;3.78;;
26696;SDS011;14312;52.614;13.496;2023-04-21T13:09:23;3.55;;;3.25;;
26696;SDS011;14312;52.614;13.496;2023-04-21T13:12:10;3.78;;;3.47;;
26696;SDS011;14312;52.614;13.496;2023-04-21T13:14:56;3.95;;;3.45;;
26696;SDS011;14312;52.614;13.496;2023-04-21T13:17:42;3.80;;;3.50;;
26696;SDS011;14312;52.614;13.496;2023-04-21T13:20:28;3.53;;;3.20;;
26696;SDS011;14312;52.614;13.496;2023-04-21T13:23:13;3.50;;;3.30;;
26696;SDS011;14312;52.614;13.496;2023-04-21T13:26:00;3.60;;;3.30;;
26696;SDS011;14312;52.614;13.496;2023-04-21T13:28:46;3.85;;;3.10;;
26696;SDS011;14312;52.614;13.496;2023-04-21T13:31:32;3.90;;;3.60;;
26696;SDS011;14312;52.614;13.496;2023-04-21T13:34:18;3.55;;;3.25;;
26696;SDS011;14312;52.614;13.496;2023-04-21T13:37:04;3.88;;;3.50;;
26696;SDS011;14312;52.614;13.496;2023-04-21T13:39:50;3.90;;;3.50;;
26696;SDS011;14312;52.614;13.496;2023-04-21T13:42:37;4.03;;;3.72;;
26696;SDS011;14312;52.614;13.496;2023-04-21T13:45:24;3.53;;;3.17;;
26696;SDS011;14312;52.614;13.496;2023-04-21T13:48:11;3.05;;;2.85;;
26696;SDS011;14312;52.614;13.496;2023-04-21T13:50:57;3.70;;;3.40;;
26696;SDS011;14312;52.614;13.496;2023-04-21T13:53:43;3.88;;;3.45;;
26696;SDS011;14312;52.614;13.496;2023-04-21T13:56:29;3.90;;;3.40;;
26696;SDS011;14312;52.614;13.496;2023-04-21T13:59:15;3.35;;;3.13;;
26696;SDS011;14312;52.614;13.496;2023-04-21T14:02:01;3.50;;;3.20;;
26696;SDS011;14312;52.614;13.496;2023-04-21T14:04:48;3.45;;;3.15;;
26696;SDS011;14312;52.614;13.496;2023-04-21T14:07:35;3.13;;;2.83;;
26696;SDS011;14312;52.614;13.496;2023-04-21T14:10:22;3.38;;;3.13;;
26696;SDS011;14312;52.614;13.496;2023-04-21T14:13:08;3.60;;;3.30;;
26696;SDS011;14312;52.614;13.496;2023-04-21T14:15:54;5.32;;;3.15;;
26696;SDS011;14312;52.614;13.496;2023-04-21T14:18:40;3.17;;;2.88;;
26696;SDS011;14312;52.614;13.496;2023-04-21T14:21:29;3.00;;;2.80;;
26696;SDS011;14312;52.614;13.496;2023-04-21T14:24:16;6.13;;;5.53;;
26696;SDS011;14312;52.614;13.496;2023-04-21T14:27:02;4.03;;;3.72;;
26696;SDS011;14312;52.614;13.496;2023-04-21T14:29:49;3.47;;;3.20;;
26696;SDS011;14312;52.614;13.496;2023-04-21T14:32:35;3.70;;;3.40;;
26696;SDS011;14312;52.614;13.496;2023-04-21T14:35:20;3.67;;;3.38;;
26696;SDS011;14312;52.614;13.496;2023-04-21T14:38:06;3.80;;;3.33;;
26696;SDS011;14312;52.614;13.496;2023-04-21T14:40:52;3.15;;;2.95;;
26696;SDS011;14312;52.614;13.496;2023-04-21T14:43:39;3.60;;;3.30;;
26696;SDS011;14312;52.614;13.496;2023-04-21T14:46:25;3.72;;;3.20;;
26696;SDS011;14312;52.614;13.496;2023-04-21T14:49:13;3.65;;;3.28;;
26696;SDS011;14312;52.614;13.496;2023-04-21T14:51:59;3.47;;;3.17;;
26696;SDS011;14312;52.614;13.496;2023-04-21T14:54:45;3.50;;;3.20;;
26696;SDS011;14312;52.614;13.496;2023-04-21T14:57:31;3.03;;;2.83;;
26696;SDS011;14312;52.614;13.496;2023-04-21T15:00:17;3.38;;;3.08;;
26696;SDS011;14312;52.614;13.496;2023-04-21T15:03:04;3.17;;;2.88;;
26696;SDS011;14312;52.614;13.496;2023-04-21T15:05:50;3.75;;;2.90;;
26696;SDS011;14312;52.614;13.496;2023-04-21T15:08:36;3.20;;;2.90;;
26696;SDS011;14312;52.614;13.496;2023-04-21T15:11:22;3.28;;;3.08;;
26696;SDS011;14312;52.614;13.496;2023-04-21T15:14:08;3.53;;;3.22;;
26696;SDS011;14312;52.614;13.496;2023-04-21T15:16:54;3.00;;;2.80;;
26696;SDS011;14312;52.614;13.496;2023-04-21T15:19:40;2.83;;;2.63;;
26696;SDS011;14312;52.614;13.496;2023-04-21T15:22:25;3.10;;;2.88;;
26696;SDS011;14312;52.614;13.496;2023-04-21T15:25:11;3.03;;;2.72;;
26696;SDS011;14312;52.614;13.496;2023-04-21T15:27:58;3.28;;;2.97;;
26696;SDS011;14312;52.614;13.496;2023-04-21T15:30:45;3.42;;;3.13;;
26696;SDS011;14312;52.614;13.496;2023-04-21T15:33:31;3.30;;;3.00;;
26696;SDS011;14312;52.614;13.496;2023-04-21T15:36:17;3.97;;;3.05;;
26696;SDS011;14312;52.614;13.496;2023-04-21T15:39:03;3.17;;;2.95;;
26696;SDS011;14312;52.614;13.496;2023-04-21T15:41:49;3.40;;;3.10;;
26696;SDS011;14312;52.614;13.496;2023-04-21T15:44:36;2.70;;;2.50;;
26696;SDS011;14312;52.614;13.496;2023-04-21T15:47:23;2.95;;;2.75;;
26696;SDS011;14312;52.614;13.496;2023-04-21T15:50:09;3.05;;;2.85;;
26696;SDS011;14312;52.614;13.496;2023-04-21T15:52:56;3.72;;;3.42;;
26696;SDS011;14312;52.614;13.496;2023-04-21T15:55:42;2.85;;;2.65;;
26696;SDS011;14312;52.614;13.496;2023-04-21T15:58:29;3.20;;;3.00;;
26696;SDS011;14312;52.614;13.496;2023-04-21T16:01:15;3.25;;;2.95;;
26696;SDS011;14312;52.614;13.496;2023-04-21T16:04:01;3.15;;;2.80;;
26696;SDS011;14312;52.614;13.496;2023-04-21T16:06:48;3.72;;;3.42;;
26696;SDS011;14312;52.614;13.496;2023-04-21T16:09:34;3.47;;;3.17;;
26696;SDS011;14312;52.614;13.496;2023-04-21T16:12:19;3.30;;;3.00;;
26696;SDS011;14312;52.614;13.496;2023-04-21T16:15:06;3.20;;;2.90;;
26696;SDS011;14312;52.614;13.496;2023-04-21T16:17:52;3.42;;;3.13;;
26696;SDS011;14312;52.614;13.496;2023-04-21T16:20:38;3.50;;;3.20;;
26696;SDS011;14312;52.614;13.496;2023-04-21T16:23:25;4.03;;;3.50;;
26696;SDS011;14312;52.614;13.496;2023-04-21T16:26:11;3.00;;;2.80;;
26696;SDS011;14312;52.614;13.496;2023-04-21T16:28:58;2.78;;;2.55;;
26696;SDS011;14312;52.614;13.496;2023-04-21T16:31:44;2.83;;;2.63;;
26696;SDS011;14312;52.614;13.496;2023-04-21T16:34:31;2.88;;;2.67;;
26696;SDS011;14312;52.614;13.496;2023-04-21T16:37:17;3.15;;;2.85;;
26696;SDS011;14312;52.614;13.496;2023-04-21T16:40:03;3.45;;;3.15;;
26696;SDS011;14312;52.614;13.496;2023-04-21T16:42:50;3.63;;;3.05;;